Time;durP1;ratioP1;P1;durP2;ratioP2;P2;SDS_P1;SDS_P2;PMS_P1;PMS_P2;Temp;Humidity;BMP_temperature;BMP_pressure;BME280_temperature;BME280_humidity;BME280_pressure;Samples;Min_cycle;Max_cycle;Signal;HPM_P1;HPM_P2
2021/04/16 00:00:07;;;;;;;;;;;1.80;86.70;;;;;;5047608;28;20021;-66
2021/04/16 00:02:33;;;;;;;1.60;0.80;;;1.80;87.20;;;;;;5047569;28;19963;-67
2021/04/16 00:04:59;;;;;;;;;;;1.70;87.80;;;;;;5047671;28;20059;-67
2021/04/16 00:07:24;;;;;;;5.28;1.27;;;1.70;87.80;;;;;;5047539;28;19952;-67
2021/04/16 00:09:50;;;;;;;;;;;1.70;88.10;;;;;;5046856;28;20093;-65
2021/04/16 00:12:16;;;;;;;5.93;1.38;;;1.60;88.70;;;;;;5047297;28;19905;-67
2021/04/16 00:14:41;;;;;;;;;;;1.60;88.60;;;;;;5046097;28;20029;-67
2021/04/16 00:17:08;;;;;;;1.83;0.70;;;1.60;89.60;;;;;;5047273;28;19916;-66
2021/04/16 00:19:35;;;;;;;2.58;1.20;;;1.50;89.50;;;;;;5047314;28;20029;-66
2021/04/16 00:22:00;;;;;;;2.17;0.90;;;1.50;89.60;;;;;;5045347;28;20029;-66
2021/04/16 00:24:26;;;;;;;;;;;1.50;89.70;;;;;;5047265;28;20682;-66
2021/04/16 00:26:52;;;;;;;2.38;0.80;;;1.60;89.50;;;;;;5046860;28;20407;-66
2021/04/16 00:29:18;;;;;;;;;;;1.50;89.30;;;;;;5047646;28;20086;-67
2021/04/16 00:31:53;;;;;;;2.35;0.90;;;1.50;89.70;;;;;;5046447;28;20293;-66
2021/04/16 00:34:21;;;;;;;1.58;0.77;;;1.50;89.60;;;;;;5045616;28;20123;-66
2021/04/16 00:36:46;;;;;;;2.80;0.75;;;1.50;89.90;;;;;;5046804;28;20052;-65
2021/04/16 00:39:12;;;;;;;;;;;1.50;89.90;;;;;;5046614;28;20552;-66
2021/04/16 00:41:38;;;;;;;1.85;0.63;;;1.40;89.70;;;;;;5046734;28;20616;-66
2021/04/16 00:44:04;;;;;;;2.05;0.70;;;1.40;89.60;;;;;;5046760;28;20779;-67
2021/04/16 00:46:42;;;;;;;1.60;0.88;;;1.40;89.30;;;;;;5046459;28;20033;-67
2021/04/16 00:49:12;;;;;;;2.53;0.70;;;1.30;89.90;;;;;;5046272;28;20120;-67
2021/04/16 00:51:44;;;;;;;4.60;1.90;;;1.30;90.00;;;;;;5046696;28;20501;-67
2021/04/16 00:54:16;;;;;;;5.90;2.58;;;1.20;90.00;;;;;;5045950;28;20464;-67
2021/04/16 00:56:41;;;;;;;7.03;2.40;;;1.20;90.10;;;;;;5046655;28;20017;-67
2021/04/16 00:59:07;;;;;;;;;;;1.10;90.40;;;;;;5046952;28;20474;-67
2021/04/16 01:01:33;;;;;;;11.57;4.93;;;1.10;90.50;;;;;;5046138;28;20070;-66
2021/04/16 01:04:00;;;;;;;4.72;1.70;;;1.10;90.50;;;;;;5046167;28;20025;-67
2021/04/16 01:06:25;;;;;;;4.35;2.05;;;1.00;90.80;;;;;;5046374;28;20072;-67
2021/04/16 01:08:51;;;;;;;;;;;1.00;90.70;;;;;;5046393;28;20520;-68
2021/04/16 01:11:18;;;;;;;4.07;1.38;;;1.00;90.80;;;;;;5046205;28;19954;-68
2021/04/16 01:13:44;;;;;;;3.30;1.90;;;1.00;90.90;;;;;;5046297;28;20106;-66
2021/04/16 01:16:13;;;;;;;3.30;1.42;;;1.00;91.00;;;;;;5045939;28;20417;-67
2021/04/16 01:18:43;;;;;;;3.70;1.50;;;0.90;90.90;;;;;;5046362;28;20531;-66
2021/04/16 01:21:12;;;;;;;3.35;1.10;;;1.00;91.00;;;;;;5046181;28;20033;-67
2021/04/16 01:23:55;;;;;;;3.22;1.20;;;1.00;91.10;;;;;;5045685;28;20129;-67
2021/04/16 01:26:41;;;;;;;1.55;0.80;;;0.90;91.00;;;;;;5045159;28;20051;-66
2021/04/16 01:29:07;;;;;;;3.07;1.27;;;0.90;91.10;;;;;;5045790;28;20053;-66
2021/04/16 01:31:34;;;;;;;2.63;0.98;;;0.90;91.20;;;;;;5044849;28;20033;-67
2021/04/16 01:34:00;;;;;;;1.98;0.93;;;0.80;91.50;;;;;;5046126;28;20386;-67
2021/04/16 01:36:33;;;;;;;2.03;0.80;;;0.80;91.40;;;;;;5045758;28;20545;-69
2021/04/16 01:39:00;;;;;;;2.10;1.00;;;0.80;91.50;;;;;;5045107;28;20043;-67
2021/04/16 01:41:29;;;;;;;2.60;0.77;;;0.80;91.40;;;;;;5046093;28;20056;-66
2021/04/16 01:44:00;;;;;;;1.88;0.70;;;0.90;91.20;;;;;;5045785;28;20112;-66
2021/04/16 01:46:27;;;;;;;2.20;0.90;;;0.90;91.30;;;;;;5045659;28;20071;-65
2021/04/16 01:48:59;;;;;;;3.13;1.20;;;0.80;91.00;;;;;;5045961;28;20045;-67
2021/04/16 01:51:34;;;;;;;2.85;1.30;;;0.80;91.10;;;;;;5045523;28;20013;-66
2021/04/16 01:54:11;;;;;;;2.85;1.20;;;0.80;91.10;;;;;;5044252;28;20090;-67
2021/04/16 01:56:38;;;;;;;2.15;0.88;;;0.80;91.20;;;;;;5045816;28;20028;-67
2021/04/16 01:59:09;;;;;;;2.97;1.15;;;0.90;91.20;;;;;;5045744;28;20033;-67
2021/04/16 02:01:35;;;;;;;4.82;1.38;;;0.90;91.10;;;;;;5045659;28;20021;-67
2021/04/16 02:04:01;;;;;;;;;;;0.90;91.10;;;;;;5046221;28;20666;-66
2021/04/16 02:06:26;;;;;;;4.63;1.77;;;0.90;91.10;;;;;;5045587;28;20458;-67
2021/04/16 02:08:55;;;;;;;;;;;0.80;91.20;;;;;;5046416;28;20047;-67
2021/04/16 02:11:20;;;;;;;2.05;0.88;;;0.80;91.30;;;;;;5049694;28;19916;-67
2021/04/16 02:13:46;;;;;;;;;;;0.80;91.40;;;;;;5048785;28;20029;-67
2021/04/16 02:16:12;;;;;;;2.63;1.10;;;0.80;91.50;;;;;;5047988;28;19951;-66
2021/04/16 02:18:37;;;;;;;;;;;0.80;91.60;;;;;;5049526;28;20795;-67
2021/04/16 02:21:03;;;;;;;3.45;1.30;;;0.80;91.70;;;;;;5047998;28;19909;-66
2021/04/16 02:23:28;;;;;;;;;;;0.80;91.80;;;;;;5047849;28;20155;-64
2021/04/16 02:25:54;;;;;;;2.15;1.10;;;0.90;91.70;;;;;;5047838;28;19912;-64
2021/04/16 02:28:19;;;;;;;;;;;0.90;91.70;;;;;;5049642;28;20045;-66
2021/04/16 02:30:46;;;;;;;5.82;3.03;;;0.90;91.80;;;;;;5049008;28;20368;-66
2021/04/16 02:33:12;;;;;;;7.38;3.80;;;0.90;91.60;;;;;;5047726;28;20064;-67
2021/04/16 02:35:38;;;;;;;;;;;0.90;91.50;;;;;;5049638;28;20059;-67
2021/04/16 02:38:03;;;;;;;7.85;3.83;;;0.90;91.50;;;;;;5048134;28;20007;-67
2021/04/16 02:40:29;;;;;;;;;;;0.90;91.50;;;;;;5049485;28;20033;-66
2021/04/16 02:42:55;;;;;;;8.13;3.95;;;0.90;91.70;;;;;;5047817;28;19912;-67
2021/04/16 02:45:22;;;;;;;;;;;0.80;91.80;;;;;;5049238;28;20436;-67
2021/04/16 02:47:49;;;;;;;9.75;3.60;;;0.80;91.90;;;;;;5048674;28;19908;-67
2021/04/16 02:50:19;;;;;;;9.88;4.95;;;0.80;91.90;;;;;;5048978;28;20055;-67
2021/04/16 02:52:45;;;;;;;8.52;4.43;;;0.80;91.90;;;;;;5048271;28;20497;-67
2021/04/16 02:55:11;;;;;;;;;;;0.80;92.10;;;;;;5047591;28;20562;-68
2021/04/16 02:57:37;;;;;;;15.30;7.13;;;0.80;92.20;;;;;;5048802;28;19905;-66
2021/04/16 03:00:10;;;;;;;;;;;0.80;92.10;;;;;;5049156;28;20067;-65
2021/04/16 03:02:36;;;;;;;15.77;6.28;;;0.80;92.00;;;;;;5048631;28;19974;-66
2021/04/16 03:05:02;;;;;;;;;;;0.80;92.00;;;;;;5048800;28;20025;-66
2021/04/16 03:07:27;;;;;;;8.30;3.85;;;0.80;92.00;;;;;;5048450;28;19940;-66
2021/04/16 03:09:53;;;;;;;;;;;0.80;92.10;;;;;;5048970;28;20040;-66
2021/04/16 03:12:19;;;;;;;5.75;2.50;;;0.80;92.30;;;;;;5048214;28;20464;-68
2021/04/16 03:14:44;;;;;;;;;;;0.90;92.20;;;;;;5048838;28;20028;-67
2021/04/16 03:17:10;;;;;;;5.70;2.55;;;0.90;92.20;;;;;;5048447;28;19909;-67
2021/04/16 03:19:35;;;;;;;;;;;0.90;92.10;;;;;;5048467;28;20064;-68
2021/04/16 03:22:01;;;;;;;4.45;2.47;;;0.90;92.20;;;;;;5045691;28;20111;-66
2021/04/16 03:24:26;;;;;;;;;;;1.00;92.40;;;;;;5048281;28;20127;-66
2021/04/16 03:26:52;;;;;;;20.88;8.18;;;1.00;92.40;;;;;;5048088;28;19908;-66
2021/04/16 03:29:17;;;;;;;;;;;1.00;92.40;;;;;;5048707;28;20190;-66
2021/04/16 03:31:45;;;;;;;34.05;14.25;;;1.10;92.10;;;;;;5048480;28;19909;-67
2021/04/16 03:34:11;;;;;;;22.35;10.88;;;1.10;92.10;;;;;;5048106;28;20028;-67
2021/04/16 03:36:37;;;;;;;11.38;5.35;;;1.10;91.90;;;;;;5047738;28;20041;-67
2021/04/16 03:39:03;;;;;;;;;;;1.20;91.90;;;;;;5048198;28;20036;-66
2021/04/16 03:41:28;;;;;;;21.52;9.70;;;1.20;92.00;;;;;;5048002;28;20389;-66
2021/04/16 03:43:54;;;;;;;;;;;1.20;92.00;;;;;;5048116;28;20588;-67
2021/04/16 03:46:20;;;;;;;29.60;11.93;;;1.30;92.00;;;;;;5047585;28;19917;-67
2021/04/16 03:48:46;;;;;;;;;;;1.30;92.00;;;;;;5048264;28;20429;-66
2021/04/16 03:51:12;;;;;;;26.52;11.52;;;1.30;91.90;;;;;;5047324;28;19955;-67
2021/04/16 03:53:39;;;;;;;;;;;1.30;92.30;;;;;;5046385;28;20029;-67
2021/04/16 03:56:08;;;;;;;22.65;9.73;;;1.30;92.20;;;;;;5047719;28;19915;-67
2021/04/16 03:58:35;;;;;;;21.77;10.30;;;1.40;92.30;;;;;;5047677;28;20017;-68
2021/04/16 04:01:02;;;;;;;22.80;10.10;;;1.40;92.30;;;;;;5046154;28;20017;-67
2021/04/16 04:03:27;;;;;;;30.10;14.10;;;1.40;92.30;;;;;;5047040;28;20057;-65
2021/04/16 04:05:53;;;;;;;;;;;1.40;92.30;;;;;;5047626;28;20126;-67
2021/04/16 04:08:19;;;;;;;47.10;23.48;;;1.50;92.40;;;;;;5047120;28;20729;-66
2021/04/16 04:10:44;;;;;;;;;;;1.50;92.50;;;;;;5047560;28;20029;-66
2021/04/16 04:13:12;;;;;;;44.63;22.67;;;1.50;92.40;;;;;;5047057;28;20298;-66
2021/04/16 04:15:39;;;;;;;33.45;18.67;;;1.50;92.60;;;;;;5045832;28;20025;-67
2021/04/16 04:18:05;;;;;;;30.20;15.65;;;1.60;92.50;;;;;;5046926;28;20640;-67
2021/04/16 04:20:33;;;;;;;28.38;14.05;;;1.70;92.30;;;;;;5047220;28;20029;-66
2021/04/16 04:23:00;;;;;;;39.45;17.95;;;1.80;92.20;;;;;;5046801;28;20135;-66
2021/04/16 04:25:28;;;;;;;77.65;28.85;;;1.80;91.90;;;;;;5046620;28;20120;-65
2021/04/16 04:27:55;;;;;;;39.63;15.68;;;1.90;91.70;;;;;;5046888;28;20013;-66
2021/04/16 04:30:25;;;;;;;29.83;9.75;;;2.00;91.50;;;;;;5046557;28;20116;-66
2021/04/16 04:32:52;;;;;;;22.13;5.40;;;2.10;91.40;;;;;;5046093;28;20028;-66
2021/04/16 04:35:20;;;;;;;15.90;8.23;;;2.10;91.40;;;;;;5046899;28;20505;-66
2021/04/16 04:37:46;;;;;;;14.07;5.13;;;2.20;91.40;;;;;;5045932;28;20033;-66
2021/04/16 04:40:12;;;;;;;;;;;2.30;91.00;;;;;;5047390;28;20036;-66
2021/04/16 04:42:38;;;;;;;5.55;1.50;;;2.40;90.50;;;;;;5045450;28;19989;-66
2021/04/16 04:45:04;;;;;;;;;;;2.50;90.20;;;;;;5047129;28;20091;-66
2021/04/16 04:47:30;;;;;;;7.30;1.40;;;2.60;89.70;;;;;;5046584;28;19915;-66
2021/04/16 04:49:56;;;;;;;;;;;2.70;89.30;;;;;;5047015;28;20041;-66
2021/04/16 04:52:28;;;;;;;2.90;1.20;;;2.80;89.10;;;;;;5046114;28;19909;-66
2021/04/16 04:54:56;;;;;;;3.78;1.20;;;2.80;89.30;;;;;;5046229;28;20075;-66
2021/04/16 04:57:24;;;;;;;3.53;1.38;;;2.90;89.50;;;;;;5046500;28;20046;-66
2021/04/16 04:59:50;;;;;;;3.20;1.30;;;2.90;89.60;;;;;;5046324;28;20497;-67
2021/04/16 05:02:18;;;;;;;2.30;1.30;;;3.00;89.70;;;;;;5045112;28;20032;-65
2021/04/16 05:04:44;;;;;;;3.40;1.60;;;3.00;90.20;;;;;;5046529;28;20037;-66
2021/04/16 05:07:09;;;;;;;;;;;3.10;89.90;;;;;;5046466;28;20032;-66
2021/04/16 05:09:35;;;;;;;1.88;0.85;;;3.30;89.50;;;;;;5045909;28;19912;-65
2021/04/16 05:12:00;;;;;;;;;;;3.50;88.50;;;;;;5046605;28;20028;-65
2021/04/16 05:14:26;;;;;;;2.80;1.33;;;3.70;87.00;;;;;;5044591;28;19999;-67
2021/04/16 05:16:52;;;;;;;;;;;3.80;86.70;;;;;;5046390;28;20014;-66
2021/04/16 05:19:18;;;;;;;5.32;2.30;;;4.00;87.70;;;;;;5044637;28;20011;-67
2021/04/16 05:21:44;;;;;;;;;;;4.20;87.40;;;;;;5046126;28;20099;-66
2021/04/16 05:24:11;;;;;;;24.60;11.07;;;4.60;86.70;;;;;;5045867;28;19920;-66
2021/04/16 05:26:39;;;;;;;26.30;13.23;;;5.00;86.10;;;;;;5045904;28;20025;-67
2021/04/16 05:29:06;;;;;;;26.65;13.73;;;5.30;84.30;;;;;;5046041;28;20139;-66
2021/04/16 05:31:32;;;;;;;24.85;11.88;;;5.50;82.50;;;;;;5046077;28;20394;-66
2021/04/16 05:33:58;;;;;;;23.92;11.15;;;5.60;81.70;;;;;;5045763;28;20477;-66
2021/04/16 05:36:24;;;;;;;;;;;5.80;81.40;;;;;;5046105;28;20033;-67
2021/04/16 05:38:49;;;;;;;20.50;9.85;;;6.00;80.90;;;;;;5045725;28;20338;-66
2021/04/16 05:41:15;;;;;;;;;;;6.30;80.60;;;;;;5046251;28;20044;-66
2021/04/16 05:43:40;;;;;;;15.35;7.95;;;6.50;79.00;;;;;;5046133;28;19904;-65
2021/04/16 05:46:06;;;;;;;;;;;6.80;78.70;;;;;;5050582;28;20532;-66
2021/04/16 05:48:32;;;;;;;6.03;3.38;;;7.10;77.30;;;;;;5049669;28;19974;-67
2021/04/16 05:50:58;;;;;;;;;;;7.20;73.90;;;;;;5050044;28;20032;-65
2021/04/16 05:53:23;;;;;;;3.92;1.90;;;7.30;72.70;;;;;;5050170;28;19912;-66
2021/04/16 05:55:49;;;;;;;;;;;7.50;72.90;;;;;;5049513;28;20025;-66
2021/04/16 05:58:15;;;;;;;2.80;1.35;;;7.60;72.00;;;;;;5049941;28;19908;-67
2021/04/16 06:00:40;;;;;;;;;;;7.60;71.80;;;;;;5050367;28;20397;-66
2021/04/16 06:03:06;;;;;;;5.85;2.08;;;7.70;71.10;;;;;;5049886;28;19912;-66
2021/04/16 06:05:31;;;;;;;;;;;7.80;71.50;;;;;;5049414;28;20405;-67
2021/04/16 06:07:57;;;;;;;2.85;1.75;;;7.90;70.90;;;;;;5049292;28;19909;-67
2021/04/16 06:10:23;;;;;;;;;;;7.90;71.60;;;;;;5048807;28;20558;-67
2021/04/16 06:12:50;;;;;;;4.03;2.08;;;8.10;70.70;;;;;;5049630;28;20323;-66
2021/04/16 06:15:21;;;;;;;3.78;1.85;;;8.20;70.40;;;;;;5049327;28;20021;-67
2021/04/16 06:17:47;;;;;;;4.07;1.55;;;8.30;69.90;;;;;;5049439;28;20053;-67
2021/04/16 06:20:15;;;;;;;;;;;8.60;69.50;;;;;;5050184;28;20134;-66
2021/04/16 06:22:41;;;;;;;;;;;8.70;68.90;;;;;;5048104;28;19967;-66
2021/04/16 06:25:09;;;;;;;3.15;1.55;;;8.60;68.10;;;;;;5049752;28;19905;-67
2021/04/16 06:27:35;;;;;;;3.45;1.73;;;8.70;69.10;;;;;;5047953;28;20143;-66
2021/04/16 06:30:01;;;;;;;2.45;1.25;;;8.80;68.20;;;;;;5049168;28;20072;-66
2021/04/16 06:32:26;;;;;;;;;;;9.00;68.10;;;;;;5049355;28;20067;-66
2021/04/16 06:34:52;;;;;;;4.53;1.70;;;9.10;67.00;;;;;;5049046;28;20377;-67
2021/04/16 06:37:18;;;;;;;;;;;9.20;66.30;;;;;;5049258;28;20537;-66
2021/04/16 06:39:44;;;;;;;2.95;1.70;;;9.30;65.60;;;;;;5048993;28;20270;-67
2021/04/16 06:42:30;;;;;;;2.33;1.35;;;9.50;64.70;;;;;;5048750;28;20040;-66
2021/04/16 06:44:59;;;;;;;3.15;2.00;;;10.00;62.00;;;;;;5048966;28;20151;-66
2021/04/16 06:47:33;;;;;;;3.25;2.20;;;10.20;61.60;;;;;;5048766;28;20021;-67
2021/04/16 06:50:00;;;;;;;3.70;2.20;;;10.40;59.80;;;;;;5049192;28;20569;-67
2021/04/16 06:52:32;;;;;;;3.35;2.22;;;10.70;58.70;;;;;;5048322;28;20029;-67
2021/04/16 06:55:15;;;;;;;3.47;2.38;;;10.90;58.70;;;;;;5048772;28;20029;-67
2021/04/16 06:57:56;;;;;;;4.15;2.63;;;11.30;56.90;;;;;;5048834;28;20059;-67
2021/04/16 07:00:28;;;;;;;4.72;2.10;;;11.60;55.70;;;;;;5047091;28;20040;-67
2021/04/16 07:03:04;;;;;;;4.20;2.90;;;11.70;56.10;;;;;;5048810;28;20033;-67
2021/04/16 07:05:34;;;;;;;4.28;2.55;;;11.90;55.20;;;;;;5047960;28;20017;-67
2021/04/16 07:08:01;;;;;;;4.10;2.75;;;12.00;55.00;;;;;;5048053;28;20024;-67
2021/04/16 07:10:31;;;;;;;3.28;2.40;;;12.00;55.20;;;;;;5048600;28;20067;-66
2021/04/16 07:12:59;;;;;;;4.03;3.10;;;12.20;54.00;;;;;;5048537;28;20057;-67
2021/04/16 07:15:43;;;;;;;3.53;3.00;;;12.60;54.20;;;;;;5048323;28;20044;-69
2021/04/16 07:18:17;;;;;;;4.05;2.35;;;13.60;52.10;;;;;;5048559;28;20029;-67
2021/04/16 07:20:42;;;;;;;3.90;2.72;;;14.40;50.70;;;;;;5047903;28;20606;-68
2021/04/16 07:23:09;;;;;;;4.72;3.10;;;15.00;49.10;;;;;;5048200;28;20032;-67
2021/04/16 07:26:04;;;;;;;3.85;2.75;;;15.70;47.50;;;;;;5048486;28;20033;-67
2021/04/16 07:28:51;;;;;;;4.40;3.22;;;16.30;45.00;;;;;;5048268;28;20128;-67
2021/04/16 07:31:49;;;;;;;3.22;2.38;;;16.90;42.30;;;;;;5048173;28;20060;-67
2021/04/16 07:34:29;;;;;;;5.65;3.08;;;16.90;41.90;;;;;;5045043;28;20043;-67
2021/04/16 07:37:05;;;;;;;4.03;3.08;;;17.10;39.70;;;;;;5047734;28;20108;-67
2021/04/16 07:39:34;;;;;;;3.05;2.15;;;17.50;41.10;;;;;;5048192;28;20033;-67
2021/04/16 07:42:08;;;;;;;3.88;2.70;;;17.70;40.80;;;;;;5047520;28;20060;-68
2021/04/16 07:44:38;;;;;;;3.10;2.35;;;17.90;38.70;;;;;;5047688;28;20148;-67
2021/04/16 07:47:15;;;;;;;2.92;2.25;;;17.80;38.20;;;;;;5047872;28;20074;-68
2021/04/16 07:49:58;;;;;;;3.30;2.08;;;18.10;37.10;;;;;;5046850;28;20037;-67
2021/04/16 07:52:41;;;;;;;2.65;2.20;;;18.70;36.50;;;;;;5047724;28;20478;-67
2021/04/16 07:55:26;;;;;;;3.70;2.38;;;18.60;36.90;;;;;;5047676;28;20078;-67
2021/04/16 07:57:59;;;;;;;3.20;1.88;;;18.70;35.60;;;;;;5047054;28;20425;-67
2021/04/16 08:00:27;;;;;;;4.22;2.15;;;19.40;34.50;;;;;;5047293;28;20021;-68
2021/04/16 08:03:11;;;;;;;2.25;1.55;;;19.50;34.90;;;;;;5047552;28;20036;-68
2021/04/16 08:05:50;;;;;;;2.72;1.70;;;19.80;33.10;;;;;;5046928;28;20036;-67
2021/04/16 08:08:25;;;;;;;2.33;1.30;;;19.90;34.20;;;;;;5045538;28;20091;-67
2021/04/16 08:11:06;;;;;;;2.10;1.42;;;20.50;32.80;;;;;;5047067;28;20040;-68
2021/04/16 08:13:41;;;;;;;1.95;1.65;;;20.70;31.80;;;;;;5046937;28;20032;-67
2021/04/16 08:16:17;;;;;;;2.30;1.92;;;20.10;31.20;;;;;;5046986;28;20063;-68
2021/04/16 08:19:00;;;;;;;2.25;1.75;;;19.40;32.30;;;;;;5047140;28;20031;-67
2021/04/16 08:21:28;;;;;;;2.58;1.40;;;18.80;33.10;;;;;;5046856;28;20119;-67
2021/04/16 08:23:56;;;;;;;2.45;1.42;;;17.80;35.10;;;;;;5045370;28;20036;-67
2021/04/16 08:26:28;;;;;;;1.63;1.20;;;16.80;36.40;;;;;;5046958;28;20367;-66
2021/04/16 08:28:53;;;;;;;2.33;1.52;;;16.10;37.40;;;;;;5045515;28;20398;-66
2021/04/16 08:31:32;;;;;;;2.75;2.10;;;15.40;38.60;;;;;;5046579;28;20028;-66
2021/04/16 08:34:12;;;;;;;1.95;1.60;;;14.70;42.50;;;;;;5046294;28;20071;-66
2021/04/16 08:36:41;;;;;;;2.20;1.67;;;14.20;42.00;;;;;;5046569;28;20106;-66
2021/04/16 08:39:31;;;;;;;1.70;1.20;;;13.70;43.90;;;;;;5046659;28;20064;-67
2021/04/16 08:42:04;;;;;;;1.77;1.20;;;13.80;42.60;;;;;;5046714;28;20554;-67
2021/04/16 08:44:33;;;;;;;2.20;1.40;;;13.50;43.20;;;;;;5046352;28;20052;-67
2021/04/16 08:47:00;;;;;;;2.40;1.48;;;13.30;44.60;;;;;;5045350;28;20531;-66
2021/04/16 08:49:35;;;;;;;3.15;1.50;;;13.10;44.10;;;;;;5045782;28;20040;-67
2021/04/16 08:52:16;;;;;;;1.50;1.07;;;13.10;44.80;;;;;;5028695;28;20025;-65
2021/04/16 08:54:43;;;;;;;2.58;1.60;;;13.10;44.20;;;;;;5046826;28;20107;-67
2021/04/16 08:57:28;;;;;;;2.33;1.30;;;13.00;44.30;;;;;;5046525;28;20025;-66
2021/04/16 09:00:12;;;;;;;2.50;1.30;;;13.10;44.70;;;;;;5045942;28;20087;-67
2021/04/16 09:02:53;;;;;;;1.80;1.00;;;14.00;44.00;;;;;;5046469;28;20437;-66
2021/04/16 09:05:21;;;;;;;1.70;0.90;;;14.50;41.40;;;;;;5045848;28;20032;-66
2021/04/16 09:07:59;;;;;;;2.30;1.48;;;14.40;40.70;;;;;;5046442;28;20519;-67
2021/04/16 09:10:25;;;;;;;1.63;1.00;;;14.50;41.00;;;;;;5046463;28;20131;-67
2021/04/16 09:12:56;;;;;;;4.60;0.93;;;14.20;40.70;;;;;;5046633;28;20047;-67
2021/04/16 09:15:25;;;;;;;1.88;0.93;;;14.10;41.00;;;;;;5045976;28;20041;-69
2021/04/16 09:17:51;;;;;;;2.20;1.20;;;13.90;41.60;;;;;;5045692;28;20029;-67
2021/04/16 09:20:18;;;;;;;2.25;1.38;;;13.70;40.80;;;;;;5045176;28;20021;-66
2021/04/16 09:22:44;;;;;;;2.25;1.50;;;13.50;40.70;;;;;;5045919;28;20037;-67
2021/04/16 09:25:29;;;;;;;1.75;1.17;;;13.20;42.40;;;;;;5046195;28;20532;-67
2021/04/16 09:27:54;;;;;;;1.85;1.20;;;13.00;43.90;;;;;;5045902;28;20031;-67
2021/04/16 09:30:21;;;;;;;;;;;12.80;43.80;;;;;;5046227;28;20040;-66
2021/04/16 09:32:54;;;;;;;2.00;1.15;;;12.60;44.70;;;;;;5046236;28;20455;-67
2021/04/16 09:35:19;;;;;;;2.10;1.33;;;12.50;44.80;;;;;;5045357;28;20095;-67
2021/04/16 09:37:47;;;;;;;;;;;12.50;43.70;;;;;;5046069;28;20029;-67
2021/04/16 09:40:27;;;;;;;2.25;1.38;;;12.40;44.60;;;;;;5045629;28;19996;-67
2021/04/16 09:43:11;;;;;;;10.32;1.58;;;12.30;44.60;;;;;;5046202;28;20029;-67
2021/04/16 09:45:49;;;;;;;2.45;1.83;;;12.30;45.00;;;;;;5045538;28;20064;-66
2021/04/16 09:48:17;;;;;;;2.35;1.30;;;12.20;43.40;;;;;;5045272;28;20091;-67
2021/04/16 09:51:09;;;;;;;2.70;1.85;;;12.10;43.90;;;;;;5045972;28;20037;-68
2021/04/16 09:53:37;;;;;;;3.28;2.50;;;11.90;46.20;;;;;;5045511;28;20108;-68
2021/04/16 09:56:03;;;;;;;4.35;2.08;;;11.80;47.50;;;;;;5045756;28;20040;-67
2021/04/16 09:58:38;;;;;;;2.58;1.77;;;11.70;46.60;;;;;;5045934;28;20027;-67
2021/04/16 10:01:05;;;;;;;4.05;1.73;;;11.50;47.10;;;;;;5045358;28;20029;-68
2021/04/16 10:03:47;;;;;;;2.25;1.35;;;11.60;47.30;;;;;;5044239;28;20036;-67
2021/04/16 10:06:20;;;;;;;1.98;0.90;;;11.70;45.70;;;;;;5044144;28;20033;-67
2021/04/16 10:08:59;;;;;;;2.80;0.60;;;11.90;44.40;;;;;;5045753;28;20029;-67
2021/04/16 10:11:25;;;;;;;2.53;1.55;;;12.10;42.30;;;;;;5045963;28;20029;-67
2021/04/16 10:13:50;;;;;;;;;;;12.60;42.90;;;;;;5046208;28;20044;-67
2021/04/16 10:16:24;;;;;;;4.88;1.60;;;12.70;44.50;;;;;;5045249;28;19912;-68
2021/04/16 10:18:49;;;;;;;3.10;2.33;;;12.80;44.70;;;;;;5045235;28;20044;-66
2021/04/16 10:21:19;;;;;;;;;;;12.70;45.90;;;;;;5045693;28;20032;-67
2021/04/16 10:24:31;;;;;;;4.50;3.17;;;12.60;47.20;;;;;;5044132;28;19912;-66
2021/04/16 12:39:17;;;;;;;5.75;3.95;;;11.00;54.10;;;;;;5046829;28;20035;-67
2021/04/16 12:41:48;;;;;;;5.78;5.03;;;11.10;54.50;;;;;;5046638;28;20031;-67
2021/04/16 12:44:39;;;;;;;5.32;3.95;;;11.30;54.60;;;;;;5046571;28;20045;-67
2021/04/16 12:47:14;;;;;;;6.10;4.03;;;11.40;54.80;;;;;;5044832;28;20401;-67
2021/04/16 12:49:40;;;;;;;5.10;3.80;;;11.60;52.60;;;;;;5045927;28;20040;-67
2021/04/16 12:52:07;;;;;;;5.93;4.68;;;11.60;53.60;;;;;;5045280;28;20032;-67
2021/04/16 12:54:44;;;;;;;4.93;4.00;;;11.60;53.20;;;;;;5046057;28;20409;-66
2021/04/16 12:57:29;;;;;;;4.63;3.83;;;11.60;52.50;;;;;;5046307;28;20031;-66
2021/04/16 12:59:54;;;;;;;6.80;4.68;;;11.30;52.90;;;;;;5045860;28;20036;-66
2021/04/16 13:02:23;;;;;;;;;;;11.10;53.50;;;;;;5046653;28;20029;-67
2021/04/16 13:04:49;;;;;;;5.72;4.90;;;10.90;54.30;;;;;;5046287;28;20550;-67
2021/04/16 13:07:14;;;;;;;;;;;10.80;55.90;;;;;;5046811;28;20291;-67
2021/04/16 13:09:40;;;;;;;7.70;5.10;;;10.80;54.80;;;;;;5046501;28;19948;-67
2021/04/16 13:12:06;;;;;;;;;;;10.80;56.30;;;;;;5046890;28;20032;-67
2021/04/16 13:14:32;;;;;;;6.68;4.30;;;10.90;54.80;;;;;;5045052;28;20361;-67
2021/04/16 13:16:57;;;;;;;;;;;11.00;55.60;;;;;;5046288;28;20032;-67
2021/04/16 13:19:28;;;;;;;6.60;4.43;;;11.20;54.10;;;;;;5046447;28;19911;-67
2021/04/16 13:22:02;;;;;;;5.43;3.83;;;11.20;54.70;;;;;;5045969;28;20025;-67
2021/04/16 13:24:30;;;;;;;6.13;4.07;;;11.30;54.20;;;;;;5046177;28;20028;-68
2021/04/16 13:26:56;;;;;;;9.63;4.53;;;11.30;54.00;;;;;;5045878;28;20024;-66
2021/04/16 13:29:21;;;;;;;;;;;11.20;54.30;;;;;;5046556;28;20469;-68
2021/04/16 13:31:47;;;;;;;9.60;4.78;;;11.20;54.00;;;;;;5045635;28;19912;-66
2021/04/16 13:34:13;;;;;;;;;;;11.10;53.90;;;;;;5046283;28;20062;-67
2021/04/16 13:36:39;;;;;;;5.53;3.72;;;11.10;53.60;;;;;;5046386;28;19959;-67
2021/04/16 13:39:05;;;;;;;;;;;11.20;54.80;;;;;;5046394;28;20029;-68
2021/04/16 13:41:31;;;;;;;7.20;4.85;;;11.30;54.50;;;;;;5044785;28;20356;-67
2021/04/16 13:43:58;;;;;;;;;;;11.30;54.40;;;;;;5046080;28;20056;-66
2021/04/16 13:46:27;;;;;;;9.18;5.63;;;11.20;54.10;;;;;;5044710;28;20444;-66
2021/04/16 13:48:54;;;;;;;8.40;5.10;;;11.20;54.20;;;;;;5045365;28;20120;-65
2021/04/16 13:51:22;;;;;;;5.78;4.25;;;11.10;54.20;;;;;;5045491;28;20064;-66
2021/04/16 13:53:48;;;;;;;6.60;5.13;;;11.00;54.80;;;;;;5045510;28;20511;-66
2021/04/16 13:56:14;;;;;;;12.88;8.45;;;11.00;54.80;;;;;;5046020;28;20029;-66
2021/04/16 13:58:39;;;;;;;;;;;11.00;55.80;;;;;;5046210;28;20094;-67
2021/04/16 14:01:08;;;;;;;6.65;4.85;;;10.90;55.10;;;;;;5045512;28;19912;-66
2021/04/16 14:03:45;;;;;;;7.65;5.75;;;10.90;55.50;;;;;;5045699;28;20515;-65
2021/04/16 14:06:26;;;;;;;10.02;7.30;;;10.90;57.40;;;;;;5048929;28;20057;-67
2021/04/16 14:09:01;;;;;;;8.15;5.75;;;11.00;55.30;;;;;;5049804;28;20072;-66
2021/04/16 14:11:31;;;;;;;8.80;5.78;;;11.00;56.30;;;;;;5049742;28;20065;-65
2021/04/16 14:13:57;;;;;;;8.00;6.00;;;11.10;55.50;;;;;;5047546;28;20021;-66
2021/04/16 14:16:29;;;;;;;;;;;11.00;55.80;;;;;;5049522;28;20037;-67
2021/04/16 14:18:57;;;;;;;8.75;6.80;;;11.00;56.00;;;;;;5049309;28;19917;-65
2021/04/16 14:21:23;;;;;;;8.48;6.60;;;10.90;56.30;;;;;;5049443;28;20581;-67
2021/04/16 14:23:48;;;;;;;;;;;10.90;56.50;;;;;;5049806;28;20068;-67
2021/04/16 14:26:16;;;;;;;8.80;6.40;;;10.90;56.00;;;;;;5049253;28;20372;-67
2021/04/16 14:28:43;;;;;;;9.10;6.65;;;10.90;55.90;;;;;;5049394;28;20035;-67
2021/04/16 14:31:09;;;;;;;8.32;6.70;;;10.80;57.60;;;;;;5048777;28;20520;-67
2021/04/16 14:33:40;;;;;;;8.25;6.20;;;10.80;57.60;;;;;;5049253;28;20025;-66
2021/04/16 14:36:06;;;;;;;10.98;6.93;;;10.70;57.00;;;;;;5049300;28;20033;-67
2021/04/16 14:38:33;;;;;;;10.10;6.68;;;10.70;58.30;;;;;;5048893;28;20033;-67
2021/04/16 14:41:00;;;;;;;10.10;7.32;;;10.70;56.60;;;;;;5049086;28;20025;-67
2021/04/16 14:43:28;;;;;;;7.95;6.47;;;10.70;56.60;;;;;;5047812;28;20596;-66
2021/04/16 14:45:55;;;;;;;9.80;7.93;;;10.60;57.60;;;;;;5047068;28;20049;-66
2021/04/16 14:48:22;;;;;;;10.73;7.13;;;10.60;57.20;;;;;;5048772;28;20056;-67
2021/04/16 14:50:49;;;;;;;9.68;7.50;;;10.50;59.00;;;;;;5049086;28;20138;-67
2021/04/16 14:53:20;;;;;;;10.25;8.10;;;10.60;58.70;;;;;;5048516;28;20032;-66
2021/04/16 14:55:47;;;;;;;14.23;9.70;;;10.60;58.20;;;;;;5048764;28;20068;-65
2021/04/16 14:58:16;;;;;;;12.57;9.65;;;10.60;58.30;;;;;;5047128;28;20094;-65
2021/04/16 15:00:42;;;;;;;8.77;7.05;;;10.60;58.50;;;;;;5047948;28;20033;-66
2021/04/16 15:03:07;;;;;;;;;;;10.60;59.30;;;;;;5049213;28;20028;-66
2021/04/16 15:05:34;;;;;;;11.23;8.25;;;10.60;59.00;;;;;;5048795;28;20458;-65
2021/04/16 15:08:08;;;;;;;12.73;8.93;;;10.50;58.90;;;;;;5048141;28;20033;-65
2021/04/16 15:10:39;;;;;;;11.48;8.48;;;10.50;59.50;;;;;;5048466;28;20040;-66
2021/04/16 15:13:07;;;;;;;11.55;8.65;;;10.40;58.70;;;;;;5047123;28;20118;-65
2021/04/16 15:15:43;;;;;;;9.15;6.70;;;10.30;59.00;;;;;;5047464;28;20068;-65
2021/04/16 15:18:10;;;;;;;11.35;7.93;;;10.20;60.20;;;;;;5048484;28;20121;-68
2021/04/16 15:20:38;;;;;;;10.07;7.32;;;10.20;60.10;;;;;;5047776;28;20040;-66
2021/04/16 15:23:05;;;;;;;9.98;7.90;;;10.20;60.20;;;;;;5048329;28;20032;-66
2021/04/16 15:25:31;;;;;;;10.77;6.95;;;10.20;59.70;;;;;;5047923;28;20101;-64
2021/04/16 15:27:59;;;;;;;14.02;10.05;;;10.20;58.90;;;;;;5046375;28;20057;-66
2021/04/16 15:30:29;;;;;;;12.32;7.35;;;10.10;59.90;;;;;;5047343;28;20133;-66